Nearby METAR Reports

Aktualna pogoda na lotniskach (dane METAR)

 

EPGD - Gdansk/Rebiechow, Poland
Distance from station: ENE 27mi, 44km
Updated: Mon, 21-Sep-2020 4:00am PDT
Clear
Clear
 Wind from varies
Wind: varies 6 mph , 9 km/h
Temperature: 70°F , 21°C
Dew Point: 43°F , 6°C
Humidity: 38%
Barometer: 30.09 inHg , 1019 hPa
Summary: Clear
Visibility: greater than 7 miles , 10 km
2020/09/21 11:00 EPGD 211100Z VRB05KT CAVOK 21/06 Q1019
EPSC - Szczecin/Golenio, Poland
Distance from station: WSW 128mi, 205km
Updated: Mon, 21-Sep-2020 4:00am PDT
Clear
Clear
 Wind from SSE
Wind: SSE 8 mph , 13 km/h
Temperature: 68°F , 20°C
Dew Point: 43°F , 6°C
Humidity: 40%
Barometer: 30.09 inHg , 1019 hPa
Summary: Clear
Visibility: greater than 7 miles , 10 km
2020/09/21 11:00 EPSC 211100Z 15007KT 100V180 CAVOK 20/06 Q1019
 
EPPO - Poznan/Lawica, Poland
Distance from station: SSW 131mi, 210km
Updated: Mon, 21-Sep-2020 4:00am PDT
Clear
Clear
 Wind from E
Wind: E 7 mph , 11 km/h
Temperature: 70°F , 21°C
Dew Point: 48°F , 9°C
Humidity: 46%
Barometer: 30.09 inHg , 1019 hPa
Summary: Clear
Visibility: greater than 7 miles , 10 km
2020/09/21 11:00 EPPO 211100Z 10006KT CAVOK 21/09 Q1019
EPLL - Lodz/Lublinek, Poland
Distance from station: SSE 184mi, 296km
Updated: Mon, 21-Sep-2020 4:00am PDT
Clear
Clear
 Wind from varies
Wind: varies 6 mph , 9 km/h
Temperature: 70°F , 21°C
Dew Point: 50°F , 10°C
Humidity: 50%
Barometer: 30.12 inHg , 1020 hPa
Summary: Clear
Visibility: greater than 7 miles , 10 km
2020/09/21 11:00 EPLL 211100Z VRB05KT CAVOK 21/10 Q1020
 
EPWA - Warsaw/Okecie, Poland
Distance from station: SE 191mi, 307km
Updated: Mon, 21-Sep-2020 4:00am PDT
Clear
Clear
 Wind from SE
Wind: SE 9 mph , 15 km/h
Temperature: 72°F , 22°C
Dew Point: 50°F , 10°C
Humidity: 47%
Barometer: 30.12 inHg , 1020 hPa
Summary: Clear
Visibility: greater than 7 miles , 10 km
2020/09/21 11:00 EPWA 211100Z 14008KT 110V170 CAVOK 22/10 Q1020 NOSIG
EPWR - Wroclaw/Strachow, Poland
Distance from station: S 219mi, 352km
Updated: Mon, 21-Sep-2020 4:00am PDT
Clear
Clear
 Wind from SE
Wind: SE 7 mph , 11 km/h
Temperature: 72°F , 22°C
Dew Point: 50°F , 10°C
Humidity: 47%
Barometer: 30.09 inHg , 1019 hPa
Summary: Clear
Visibility: greater than 7 miles , 10 km
2020/09/21 11:00 EPWR 211100Z 14006KT 110V170 CAVOK 22/10 Q1019

Metar display script from Saratoga-Weather.org